Time;durP1;ratioP1;P1;durP2;ratioP2;P2;SDS_P1;SDS_P2;PMS_P1;PMS_P2;Temp;Humidity;BMP_temperature;BMP_pressure;BME280_temperature;BME280_humidity;BME280_pressure;Samples;Min_cycle;Max_cycle;Signal;HPM_P1;HPM_P2
2022/07/15 00:00:46;;;;;;;0.20;0.10;;;;;;;;;;6069663;23;20014;-89
2022/07/15 00:03:12;;;;;;;0.20;0.10;;;;;;;;;;6069172;23;20018;-90
2022/07/15 00:05:38;;;;;;;0.20;0.10;;;;;;;;;;6066141;23;20014;-89
2022/07/15 00:08:05;;;;;;;0.20;0.10;;;;;;;;;;6069739;23;20100;-90
2022/07/15 00:10:31;;;;;;;0.20;0.10;;;;;;;;;;6069300;23;20526;-90
2022/07/15 00:12:58;;;;;;;0.20;0.10;;;;;;;;;;6092326;23;20014;-90
2022/07/15 00:15:28;;;;;;;0.20;0.10;;;;;;;;;;6092958;23;20022;-90
2022/07/15 00:17:56;;;;;;;0.20;0.10;;;;;;;;;;6091643;23;20020;-89
2022/07/15 00:20:22;;;;;;;0.20;0.10;;;;;;;;;;6090095;23;20010;-89
2022/07/15 00:22:48;;;;;;;0.20;0.10;;;;;;;;;;6089993;23;20128;-90
2022/07/15 00:25:15;;;;;;;0.20;0.10;;;;;;;;;;6066237;23;20028;-89
2022/07/15 00:28:01;;;;;;;0.20;0.10;;;;;;;;;;6090809;23;20017;-90
2022/07/15 00:30:31;;;;;;;0.20;0.10;;;;;;;;;;6093522;23;20014;-90
2022/07/15 00:32:57;;;;;;;0.20;0.10;;;;;;;;;;6091776;23;20018;-90
2022/07/15 00:35:23;;;;;;;0.20;0.10;;;;;;;;;;6066762;23;20021;-91
2022/07/15 00:37:49;;;;;;;0.20;0.10;;;;;;;;;;6092202;23;20455;-90
2022/07/15 00:40:16;;;;;;;0.20;0.10;;;;;;;;;;6093059;23;20018;-90
2022/07/15 00:42:45;;;;;;;0.20;0.10;;;;;;;;;;6117864;23;20029;-90
2022/07/15 00:45:15;;;;;;;0.20;0.10;;;;;;;;;;6070035;23;20092;-90
2022/07/15 00:47:45;;;;;;;0.20;0.10;;;;;;;;;;6116418;23;20018;-90
2022/07/15 00:50:11;;;;;;;0.20;0.10;;;;;;;;;;6097375;23;20340;-90
2022/07/15 00:52:43;;;;;;;0.20;0.10;;;;;;;;;;6069492;23;20018;-90
2022/07/15 00:55:12;;;;;;;0.20;0.10;;;;;;;;;;6092236;23;20514;-90
2022/07/15 00:57:40;;;;;;;0.20;0.10;;;;;;;;;;6065834;23;20024;-90
2022/07/15 01:00:08;;;;;;;0.20;0.10;;;;;;;;;;6091387;23;20010;-90
2022/07/15 01:02:35;;;;;;;0.20;0.10;;;;;;;;;;6090197;23;20018;-92
2022/07/15 01:05:04;;;;;;;0.20;0.10;;;;;;;;;;6090136;23;20049;-90
2022/07/15 01:07:30;;;;;;;0.20;0.10;;;;;;;;;;6090078;23;20025;-90
2022/07/15 01:09:56;;;;;;;0.20;0.10;;;;;;;;;;6067462;23;20014;-90
2022/07/15 01:12:22;;;;;;;0.20;0.10;;;;;;;;;;6066859;23;20451;-90
2022/07/15 01:14:49;;;;;;;0.20;0.10;;;;;;;;;;6066428;23;20021;-90
2022/07/15 01:17:16;;;;;;;0.20;0.10;;;;;;;;;;6091266;23;20014;-90
2022/07/15 01:19:42;;;;;;;0.20;0.10;;;;;;;;;;6064713;23;20014;-90
2022/07/15 01:22:08;;;;;;;0.20;0.10;;;;;;;;;;6041880;23;20018;-90
2022/07/15 01:24:34;;;;;;;0.20;0.10;;;;;;;;;;6043280;23;20044;-90
2022/07/15 01:27:01;;;;;;;0.20;0.20;;;;;;;;;;6067871;23;20021;-91
2022/07/15 01:29:27;;;;;;;0.20;0.10;;;;;;;;;;6042494;23;20049;-90
2022/07/15 01:31:53;;;;;;;0.20;0.10;;;;;;;;;;6067060;23;20014;-90
2022/07/15 01:34:20;;;;;;;0.20;0.10;;;;;;;;;;6066799;23;20024;-90
2022/07/15 01:36:46;;;;;;;0.20;0.10;;;;;;;;;;6067469;23;20456;-90
2022/07/15 01:39:12;;;;;;;0.20;0.10;;;;;;;;;;6044972;23;20033;-91
2022/07/15 01:41:38;;;;;;;0.20;0.10;;;;;;;;;;6070357;23;20014;-90
2022/07/15 01:44:04;;;;;;;0.20;0.10;;;;;;;;;;6068741;23;20113;-90
2022/07/15 01:46:31;;;;;;;0.20;0.10;;;;;;;;;;6068895;23;20017;-89
2022/07/15 01:51:42;;;;;;;0.20;0.10;;;;;;;;;;6071284;23;20061;-89
2022/07/15 01:54:08;;;;;;;0.20;0.10;;;;;;;;;;6045541;23;20069;-89
2022/07/15 01:56:36;;;;;;;0.20;0.10;;;;;;;;;;6070026;23;20014;-90
2022/07/15 01:59:02;;;;;;;0.20;0.10;;;;;;;;;;6068701;23;20010;-90
2022/07/15 02:01:28;;;;;;;0.20;0.10;;;;;;;;;;6046779;23;20017;-90
2022/07/15 02:03:54;;;;;;;0.20;0.10;;;;;;;;;;6047844;23;20025;-90
2022/07/15 02:06:20;;;;;;;0.20;0.10;;;;;;;;;;6047456;23;20074;-90
2022/07/15 02:08:46;;;;;;;0.20;0.10;;;;;;;;;;6046423;23;20459;-89
2022/07/15 02:11:12;;;;;;;0.20;0.10;;;;;;;;;;6047043;23;20014;-90
2022/07/15 02:13:38;;;;;;;0.20;0.10;;;;;;;;;;6046553;23;20100;-90
2022/07/15 02:16:05;;;;;;;0.20;0.10;;;;;;;;;;6047904;23;20404;-89
2022/07/15 02:18:31;;;;;;;0.20;0.10;;;;;;;;;;6106704;23;20010;-90
2022/07/15 02:20:57;;;;;;;0.20;0.10;;;;;;;;;;6067139;23;20092;-90
2022/07/15 02:23:23;;;;;;;0.20;0.10;;;;;;;;;;6067705;23;20017;-91
2022/07/15 02:25:50;;;;;;;0.20;0.10;;;;;;;;;;6068858;23;20022;-88
2022/07/15 02:28:16;;;;;;;0.20;0.10;;;;;;;;;;6092008;23;20097;-89
2022/07/15 02:30:43;;;;;;;0.20;0.10;;;;;;;;;;6092489;23;20108;-90
2022/07/15 02:33:10;;;;;;;0.20;0.10;;;;;;;;;;6093225;23;20351;-90
2022/07/15 02:35:37;;;;;;;0.20;0.10;;;;;;;;;;6092594;23;20010;-90
2022/07/15 02:38:03;;;;;;;0.20;0.10;;;;;;;;;;6067183;23;20017;-90
2022/07/15 02:40:30;;;;;;;0.20;0.10;;;;;;;;;;6091473;23;20341;-90
2022/07/15 02:42:58;;;;;;;0.20;0.10;;;;;;;;;;6091568;23;20014;-90
2022/07/15 02:45:25;;;;;;;0.20;0.00;;;;;;;;;;6094160;23;20017;-90
2022/07/15 02:47:52;;;;;;;0.20;0.10;;;;;;;;;;6092507;23;20451;-90
2022/07/15 02:50:18;;;;;;;0.20;0.10;;;;;;;;;;6090589;23;20032;-89
2022/07/15 02:52:45;;;;;;;0.20;0.10;;;;;;;;;;6068027;23;20022;-89
2022/07/15 02:55:12;;;;;;;0.20;0.10;;;;;;;;;;6091041;23;20049;-90
2022/07/15 02:57:38;;;;;;;0.20;0.10;;;;;;;;;;6069191;23;20018;-90
2022/07/15 03:00:05;;;;;;;0.20;0.00;;;;;;;;;;6090215;23;20018;-90
2022/07/15 03:02:31;;;;;;;0.20;0.10;;;;;;;;;;6067389;23;20025;-89
2022/07/15 03:04:58;;;;;;;0.20;0.10;;;;;;;;;;6119498;23;20352;-89
2022/07/15 03:07:24;;;;;;;0.20;0.10;;;;;;;;;;6067849;23;20374;-89
2022/07/15 03:09:50;;;;;;;0.20;0.10;;;;;;;;;;6091372;23;20014;-90
2022/07/15 03:12:16;;;;;;;0.20;0.10;;;;;;;;;;6091862;23;20360;-90
2022/07/15 03:14:42;;;;;;;0.20;0.10;;;;;;;;;;6090101;23;20017;-90
2022/07/15 03:17:08;;;;;;;0.20;0.10;;;;;;;;;;6091087;23;20013;-89
2022/07/15 03:19:35;;;;;;;0.20;0.10;;;;;;;;;;6067984;23;20021;-89
2022/07/15 03:22:01;;;;;;;0.20;0.10;;;;;;;;;;6069293;23;20534;-90
2022/07/15 03:24:27;;;;;;;0.20;0.10;;;;;;;;;;6044455;23;20013;-90
2022/07/15 03:26:53;;;;;;;0.20;0.10;;;;;;;;;;6044179;23;20025;-90
2022/07/15 03:29:19;;;;;;;1.33;1.10;;;;;;;;;;6067250;23;20368;-90
2022/07/15 03:31:46;;;;;;;0.20;0.10;;;;;;;;;;6043117;23;20121;-89
2022/07/15 03:34:12;;;;;;;0.20;0.10;;;;;;;;;;6068177;23;20471;-91
2022/07/15 03:36:38;;;;;;;0.20;0.10;;;;;;;;;;6068182;23;20032;-91
2022/07/15 03:39:08;;;;;;;0.20;0.10;;;;;;;;;;6070093;23;20352;-90
2022/07/15 03:41:34;;;;;;;0.20;0.10;;;;;;;;;;6066638;23;20356;-90
2022/07/15 03:44:01;;;;;;;0.20;0.10;;;;;;;;;;6066366;23;20021;-90
2022/07/15 03:46:29;;;;;;;0.20;0.10;;;;;;;;;;6043556;23;20025;-90
2022/07/15 03:48:58;;;;;;;0.20;0.10;;;;;;;;;;6040717;23;20037;-90
2022/07/15 03:51:24;;;;;;;0.20;0.10;;;;;;;;;;6041759;23;20020;-90
2022/07/15 03:53:51;;;;;;;0.20;0.10;;;;;;;;;;6041922;23;20359;-90
2022/07/15 03:56:17;;;;;;;0.20;0.10;;;;;;;;;;6041934;23;20036;-90
2022/07/15 03:58:44;;;;;;;0.20;0.10;;;;;;;;;;6042227;23;20278;-90
2022/07/15 04:01:10;;;;;;;0.20;0.10;;;;;;;;;;6039305;23;20013;-91
2022/07/15 04:03:37;;;;;;;0.20;0.10;;;;;;;;;;6042276;23;20092;-89
2022/07/15 04:06:03;;;;;;;0.20;0.10;;;;;;;;;;6065397;23;20022;-89
2022/07/15 04:08:29;;;;;;;0.20;0.10;;;;;;;;;;6063812;23;20017;-90
2022/07/15 04:10:56;;;;;;;0.20;0.10;;;;;;;;;;6040800;23;20014;-90
2022/07/15 04:13:22;;;;;;;0.20;0.10;;;;;;;;;;6066966;23;20077;-90
2022/07/15 04:15:48;;;;;;;0.20;0.00;;;;;;;;;;6041983;23;20014;-89
2022/07/15 04:33:50;;;;;;;0.20;0.10;;;;;;;;;;6163078;23;20649;-91
2022/07/15 04:36:21;;;;;;;0.20;0.10;;;;;;;;;;6137903;23;20661;-91
2022/07/15 04:39:00;;;;;;;0.20;0.10;;;;;;;;;;6111215;23;20465;-91
2022/07/15 04:41:26;;;;;;;0.20;0.10;;;;;;;;;;6136355;23;20052;-90
2022/07/15 04:43:52;;;;;;;0.20;0.10;;;;;;;;;;6139444;23;20021;-91
2022/07/15 04:46:19;;;;;;;0.20;0.10;;;;;;;;;;6117092;23;20068;-89
2022/07/15 04:51:35;;;;;;;0.20;0.10;;;;;;;;;;6164699;23;20475;-92
2022/07/15 04:54:01;;;;;;;0.20;0.10;;;;;;;;;;6122945;23;20031;-91
2022/07/15 04:56:31;;;;;;;0.20;0.10;;;;;;;;;;6123295;23;20016;-92
2022/07/15 04:58:59;;;;;;;0.20;0.10;;;;;;;;;;6113629;23;20017;-92
2022/07/15 05:01:29;;;;;;;0.20;0.10;;;;;;;;;;6117102;23;20009;-92
2022/07/15 05:03:58;;;;;;;0.20;0.00;;;;;;;;;;6138789;23;20071;-91
2022/07/15 05:06:24;;;;;;;0.20;0.08;;;;;;;;;;6141377;23;20357;-89
2022/07/15 05:08:50;;;;;;;0.20;0.10;;;;;;;;;;6140099;23;20096;-91
2022/07/15 05:11:16;;;;;;;0.20;0.10;;;;;;;;;;6140004;23;20048;-91
2022/07/15 05:13:45;;;;;;;0.20;0.10;;;;;;;;;;6111900;23;20009;-92
2022/07/15 05:16:14;;;;;;;0.20;0.10;;;;;;;;;;6135070;23;20028;-90
2022/07/15 05:18:40;;;;;;;0.20;0.10;;;;;;;;;;6134485;23;20013;-91
2022/07/15 05:21:06;;;;;;;0.20;0.10;;;;;;;;;;6134159;23;20009;-90
2022/07/15 05:23:32;;;;;;;0.20;0.10;;;;;;;;;;6134733;23;20487;-91
2022/07/15 05:26:04;;;;;;;0.20;0.10;;;;;;;;;;6156836;23;20327;-91
2022/07/15 05:28:33;;;;;;;0.20;0.10;;;;;;;;;;6134436;23;20024;-90
2022/07/15 05:30:59;;;;;;;0.20;0.10;;;;;;;;;;6132996;23;20021;-91
2022/07/15 05:33:25;;;;;;;0.20;0.10;;;;;;;;;;6134759;23;20342;-91
2022/07/15 05:35:54;;;;;;;0.20;0.10;;;;;;;;;;6114565;23;20024;-91
2022/07/15 05:38:20;;;;;;;0.20;0.10;;;;;;;;;;6140669;23;20445;-92
2022/07/15 05:40:46;;;;;;;0.20;0.10;;;;;;;;;;6116854;23;20013;-92
2022/07/15 05:43:12;;;;;;;0.20;0.10;;;;;;;;;;6138374;23;20012;-91
2022/07/15 05:45:38;;;;;;;0.20;0.05;;;;;;;;;;6137349;23;20012;-90
2022/07/15 05:48:07;;;;;;;0.20;0.10;;;;;;;;;;6133240;23;20020;-90
2022/07/15 05:50:33;;;;;;;0.20;0.10;;;;;;;;;;6132212;23;20023;-92
2022/07/15 05:53:00;;;;;;;0.20;0.10;;;;;;;;;;6108966;23;20396;-92
2022/07/15 05:55:26;;;;;;;0.20;0.10;;;;;;;;;;6110582;23;20013;-91
2022/07/15 05:57:52;;;;;;;0.20;0.10;;;;;;;;;;6134702;23;20083;-90
2022/07/15 06:00:18;;;;;;;0.20;0.10;;;;;;;;;;6135910;23;20012;-91
2022/07/15 06:02:45;;;;;;;0.20;0.10;;;;;;;;;;6137156;23;20021;-91
2022/07/15 06:05:11;;;;;;;0.20;0.10;;;;;;;;;;6158788;23;20133;-92
2022/07/15 06:07:38;;;;;;;0.20;0.10;;;;;;;;;;6115016;23;20063;-91
2022/07/15 06:10:05;;;;;;;0.20;0.10;;;;;;;;;;6139296;23;20122;-92
2022/07/15 06:12:31;;;;;;;0.20;0.10;;;;;;;;;;6138605;23;20017;-92
2022/07/15 06:14:57;;;;;;;0.20;0.10;;;;;;;;;;6114551;23;20462;-91
2022/07/15 06:17:23;;;;;;;0.20;0.10;;;;;;;;;;6114353;23;20358;-90
2022/07/15 06:19:49;;;;;;;0.20;0.10;;;;;;;;;;6138858;23;20082;-91
2022/07/15 06:22:15;;;;;;;0.20;0.10;;;;;;;;;;6117183;23;20009;-91
2022/07/15 06:24:42;;;;;;;0.20;0.10;;;;;;;;;;6137127;23;20457;-91
2022/07/15 06:27:10;;;;;;;0.20;0.10;;;;;;;;;;6110550;23;20009;-91
2022/07/15 06:30:02;;;;;;;0.20;0.10;;;;;;;;;;6137930;23;20048;-92
2022/07/15 06:32:41;;;;;;;;;;;;;;;;;;;;;
2022/07/15 06:35:11;;;;;;;0.20;0.10;;;;;;;;;;6158852;23;20096;-93
2022/07/15 06:37:38;;;;;;;0.20;0.10;;;;;;;;;;6136465;23;20013;-90
2022/07/15 06:40:15;;;;;;;0.20;0.10;;;;;;;;;;6131883;23;20017;-92
2022/07/15 06:42:47;;;;;;;0.20;0.10;;;;;;;;;;6137133;23;20486;-90
2022/07/15 06:45:14;;;;;;;0.20;0.00;;;;;;;;;;6140624;23;20021;-91
2022/07/15 06:48:19;;;;;;;;;;;;;;;;;;;;;
2022/07/15 06:58:23;;;;;;;0.20;0.10;;;;;;;;;;6156028;23;20049;-90
2022/07/15 07:00:49;;;;;;;0.20;0.10;;;;;;;;;;6082470;23;20430;-91
2022/07/15 07:06:13;;;;;;;0.20;0.10;;;;;;;;;;6107950;23;20032;-92
2022/07/15 07:09:08;;;;;;;0.20;0.10;;;;;;;;;;6106970;23;20017;-91
2022/07/15 07:11:39;;;;;;;0.20;0.10;;;;;;;;;;5954520;24;20069;-91
2022/07/15 07:17:14;;;;;;;0.20;0.10;;;;;;;;;;5955963;24;20088;-92
2022/07/15 07:23:11;;;;;;;0.20;0.10;;;;;;;;;;5902187;24;20025;-93
2022/07/15 08:14:04;;;;;;;0.20;0.10;;;;;;;;;;6158245;23;20010;-94
2022/07/15 08:16:47;;;;;;;0.20;0.10;;;;;;;;;;6100732;23;20068;-94
2022/07/15 13:07:58;;;;;;;0.20;0.10;;;;;;;;;;6151554;23;20089;-89
2022/07/15 13:10:24;;;;;;;0.20;0.10;;;;;;;;;;6099342;23;20100;-93
2022/07/15 13:12:50;;;;;;;0.20;0.10;;;;;;;;;;6099067;23;20014;-92
2022/07/15 13:15:22;;;;;;;0.20;0.10;;;;;;;;;;6099740;23;20084;-89
2022/07/15 13:18:06;;;;;;;0.20;0.20;;;;;;;;;;6099041;23;20044;-92
2022/07/15 13:20:53;;;;;;;0.20;0.10;;;;;;;;;;6099290;23;20336;-89
2022/07/15 13:23:31;;;;;;;0.20;0.10;;;;;;;;;;6099941;23;20024;-88
2022/07/15 13:26:00;;;;;;;0.20;0.10;;;;;;;;;;6101130;23;20021;-88
2022/07/15 13:28:27;;;;;;;0.20;0.10;;;;;;;;;;6075789;23;20021;-89
2022/07/15 13:30:53;;;;;;;0.20;0.10;;;;;;;;;;6100530;23;20053;-89
2022/07/15 13:33:19;;;;;;;0.20;0.10;;;;;;;;;;6100455;23;20069;-90
2022/07/15 13:35:49;;;;;;;0.20;0.10;;;;;;;;;;6098829;23;20049;-90
2022/07/15 13:38:15;;;;;;;0.20;0.10;;;;;;;;;;6076200;23;20569;-90
2022/07/15 13:40:41;;;;;;;0.20;0.10;;;;;;;;;;6099352;23;20198;-91
2022/07/15 13:43:07;;;;;;;0.20;0.10;;;;;;;;;;6099948;23;20060;-89
2022/07/15 13:45:34;;;;;;;0.20;0.10;;;;;;;;;;6099089;23;20354;-90
2022/07/15 13:48:00;;;;;;;0.20;0.10;;;;;;;;;;6102413;23;20020;-89
2022/07/15 13:53:11;;;;;;;0.20;0.10;;;;;;;;;;6104802;23;20014;-88
2022/07/15 13:55:39;;;;;;;0.20;0.10;;;;;;;;;;6101385;23;20024;-89
2022/07/15 13:58:05;;;;;;;0.20;0.10;;;;;;;;;;6102879;23;20362;-91
2022/07/15 14:00:31;;;;;;;0.20;0.10;;;;;;;;;;6077404;23;20014;-93
2022/07/15 14:03:01;;;;;;;0.20;0.10;;;;;;;;;;6077020;23;20013;-91
2022/07/15 14:05:27;;;;;;;0.20;0.10;;;;;;;;;;6099966;23;20018;-89
2022/07/15 14:07:55;;;;;;;0.20;0.10;;;;;;;;;;6101939;23;20113;-90
2022/07/15 14:10:21;;;;;;;0.20;0.10;;;;;;;;;;6100799;23;20021;-90
2022/07/15 14:12:59;;;;;;;0.20;0.10;;;;;;;;;;6104462;23;20018;-90
2022/07/15 14:15:32;;;;;;;0.20;0.10;;;;;;;;;;6082872;23;20018;-90
2022/07/15 14:18:04;;;;;;;0.20;0.10;;;;;;;;;;6080123;23;20013;-89
2022/07/15 14:20:34;;;;;;;0.20;0.10;;;;;;;;;;6082490;23;20070;-88
2022/07/15 14:23:00;;;;;;;0.20;0.10;;;;;;;;;;6105075;23;20448;-89
2022/07/15 14:25:26;;;;;;;0.20;0.10;;;;;;;;;;6149752;23;20088;-90
2022/07/15 14:28:03;;;;;;;0.20;0.10;;;;;;;;;;6155829;23;20020;-90
2022/07/15 14:30:33;;;;;;;0.20;0.10;;;;;;;;;;6160901;23;20295;-90
2022/07/15 14:32:59;;;;;;;0.20;0.10;;;;;;;;;;6157988;23;20031;-88
2022/07/15 14:35:25;;;;;;;0.20;0.00;;;;;;;;;;6156925;23;20017;-88
2022/07/15 14:37:54;;;;;;;0.20;0.10;;;;;;;;;;6157291;23;20036;-90
2022/07/15 14:40:25;;;;;;;0.20;0.10;;;;;;;;;;6153460;23;20013;-89
2022/07/15 14:42:54;;;;;;;0.20;0.10;;;;;;;;;;6133108;23;20017;-87
2022/07/15 14:45:24;;;;;;;0.20;0.10;;;;;;;;;;6160098;23;20020;-88
2022/07/15 14:47:50;;;;;;;0.20;0.10;;;;;;;;;;6182016;23;20017;-88
2022/07/15 14:50:16;;;;;;;0.20;0.10;;;;;;;;;;6160602;23;20488;-88
2022/07/15 14:52:42;;;;;;;0.20;0.00;;;;;;;;;;6136234;23;20076;-89
2022/07/15 14:55:09;;;;;;;0.20;0.10;;;;;;;;;;6162701;23;20013;-90
2022/07/15 14:57:35;;;;;;;0.20;0.10;;;;;;;;;;6136596;23;20064;-88
2022/07/15 15:00:02;;;;;;;0.20;0.10;;;;;;;;;;6156238;23;20092;-91
2022/07/15 15:02:35;;;;;;;0.20;0.10;;;;;;;;;;6155406;23;20017;-91
2022/07/15 15:05:04;;;;;;;0.20;0.00;;;;;;;;;;6159316;23;20013;-90
2022/07/15 15:07:31;;;;;;;0.20;0.10;;;;;;;;;;6154175;23;20017;-90
2022/07/15 15:09:57;;;;;;;0.20;0.10;;;;;;;;;;6153738;23;20013;-91
2022/07/15 15:12:23;;;;;;;0.20;0.10;;;;;;;;;;6155005;23;20031;-90
2022/07/15 15:14:49;;;;;;;0.20;0.10;;;;;;;;;;6131660;23;20088;-91
2022/07/15 15:17:15;;;;;;;0.20;0.10;;;;;;;;;;6131033;23;20414;-90
2022/07/15 15:19:42;;;;;;;0.20;0.10;;;;;;;;;;6131234;23;20096;-90
2022/07/15 15:22:08;;;;;;;0.20;0.10;;;;;;;;;;6156349;23;20072;-91
2022/07/15 15:24:37;;;;;;;0.20;0.10;;;;;;;;;;6156460;23;20496;-88
2022/07/15 15:27:04;;;;;;;0.20;0.10;;;;;;;;;;6157110;23;20064;-91
2022/07/15 15:29:33;;;;;;;0.20;0.10;;;;;;;;;;6155381;23;20383;-88
2022/07/15 15:32:02;;;;;;;0.20;0.10;;;;;;;;;;6156584;23;20013;-92
2022/07/15 15:34:30;;;;;;;0.20;0.10;;;;;;;;;;6154493;23;20013;-90
2022/07/15 15:36:59;;;;;;;0.20;0.10;;;;;;;;;;6156347;23;20013;-90
2022/07/15 15:39:27;;;;;;;0.20;0.10;;;;;;;;;;6155514;23;20533;-89
2022/07/15 15:41:57;;;;;;;0.20;0.10;;;;;;;;;;6154726;23;20020;-91
2022/07/15 15:44:23;;;;;;;0.20;0.10;;;;;;;;;;6130881;23;20345;-91
2022/07/15 15:46:52;;;;;;;0.20;0.10;;;;;;;;;;6155322;23;20039;-87
2022/07/15 15:49:21;;;;;;;0.20;0.10;;;;;;;;;;6130938;23;20405;-90
2022/07/15 15:51:52;;;;;;;0.20;0.10;;;;;;;;;;6157920;23;20458;-91
2022/07/15 15:54:19;;;;;;;0.20;0.10;;;;;;;;;;6130856;23;20075;-92
2022/07/15 15:56:47;;;;;;;0.20;0.10;;;;;;;;;;6155584;23;20570;-91
2022/07/15 15:59:16;;;;;;;0.20;0.10;;;;;;;;;;6129639;23;20017;-91
2022/07/15 16:01:42;;;;;;;0.20;0.10;;;;;;;;;;6153802;23;20060;-91
2022/07/15 16:04:08;;;;;;;0.20;0.10;;;;;;;;;;6129442;23;20017;-90
2022/07/15 16:06:35;;;;;;;0.20;0.10;;;;;;;;;;6154806;23;20389;-91
2022/07/15 16:09:03;;;;;;;0.20;0.10;;;;;;;;;;6129042;23;20036;-90
2022/07/15 16:11:29;;;;;;;0.20;0.10;;;;;;;;;;6150926;23;20017;-92
2022/07/15 16:13:55;;;;;;;0.20;0.10;;;;;;;;;;6127343;23;20513;-90
2022/07/15 16:16:22;;;;;;;0.30;0.28;;;;;;;;;;6153885;23;20067;-90
2022/07/15 16:18:48;;;;;;;0.20;0.10;;;;;;;;;;6128129;23;20095;-89
2022/07/15 16:21:14;;;;;;;0.20;0.10;;;;;;;;;;6153579;23;20043;-90
2022/07/15 16:23:40;;;;;;;0.20;0.10;;;;;;;;;;6124871;23;20064;-90
2022/07/15 16:26:06;;;;;;;0.20;0.10;;;;;;;;;;6078345;23;20052;-90
2022/07/15 16:28:33;;;;;;;0.20;0.10;;;;;;;;;;6100297;23;20025;-88
2022/07/15 23:39:39;;;;;;;0.20;0.10;;;;;;;;;;6123266;23;20084;-90
2022/07/15 23:42:18;;;;;;;0.20;0.10;;;;;;;;;;6077389;23;20022;-90
2022/07/15 23:44:46;;;;;;;0.20;0.10;;;;;;;;;;6074791;23;20048;-91
2022/07/15 23:47:18;;;;;;;0.20;0.20;;;;;;;;;;6080749;23;20057;-91
2022/07/15 23:50:10;;;;;;;0.20;0.10;;;;;;;;;;6057946;23;20363;-91
2022/07/15 23:52:48;;;;;;;0.20;0.10;;;;;;;;;;6080960;23;20029;-92
2022/07/15 23:55:18;;;;;;;0.20;0.10;;;;;;;;;;6076908;23;20105;-91
2022/07/15 23:57:45;;;;;;;0.20;0.10;;;;;;;;;;6078529;23;20021;-91
